°C

Conditions at local time : on    Forecast:

Nearby METAR Reports





EGKA - Shoreham-By-Sea, United Kingdom
Distance from station: ENE 4mi, 6km
Updated: Wed, 26-Jan-2022 5:50pm GMT
NOT Current
Clear
Clear
 Wind from WSW
Wind: WSW 6 mph , 9 km/h
Temperature: 4°C
Wind Chill: 2°C
Dew Point: 1°C
Humidity: 81%
Barometer: 1032 hPa
Summary: Clear
Visibility: greater than 7 miles , 10 km
2022/01/26 17:50 EGKA 261750Z 25005KT CAVOK 04/01 Q1032
EGKK - London/Gatwick A, United Kingdom
Distance from station: NNE 24mi, 39km
Updated: Wed, 26-Jan-2022 10:20pm GMT
Mostly Cloudy
Mostly Cloudy
 Wind from SW
Wind: SW 8 mph , 13 km/h
Temperature: 5°C
Wind Chill: 2°C
Dew Point: 2°C
Humidity: 81%
Barometer: 1030 hPa
Clouds: Mostly Cloudy
Visibility: 6 miles , 10 km
Cloud details: Mostly Cloudy 853 m
2022/01/26 22:20 EGKK 262220Z 23007KT 9999 BKN028 05/02 Q1030
 
EGLF - Farnborough, United Kingdom
Distance from station: NNW 37mi, 59km
Updated: Wed, 26-Jan-2022 10:20pm GMT
Overcast
Overcast
 Wind from SW
Wind: SW 12 mph , 19 km/h
Temperature: 6°C
Wind Chill: 3°C
Dew Point: 2°C
Humidity: 76%
Barometer: 1029 hPa
Clouds: Overcast
Visibility: 6 miles , 10 km
Cloud details: Overcast 792 m
2022/01/26 22:20 EGLF 262220Z AUTO 23010KT 9999 OVC026/// 06/02 Q1029
EGVO - Odiham Raf, United Kingdom
Distance from station: NW 38mi, 61km
Updated: Wed, 26-Jan-2022 9:50pm GMT
Overcast
Overcast
 Wind from SW
Wind: SW 12 mph , 19 km/h
Temperature: 5°C
Wind Chill: 1°C
Dew Point: 2°C
Humidity: 81%
Barometer: 1029 hPa
Clouds: Overcast
Visibility: 6 miles , 10 km
Cloud details: Overcast 792 m
2022/01/26 21:50 EGVO 262150Z AUTO 22010KT 9999 OVC026/// 05/02 Q1029